Flight Track Log - Related Links

Times and Time Zones

All times are in EDT time to prevent confusion due to time zone crossing. See the JZA8436 flight status page for this flight to view local times or setup timezone preferences in your user account.

Time Position Orientation Groundspeed Altitude Reporting Facility
EDT Latitude Longitude Course Direction KTS MPH feet Rate Location/Type
13:16 51.0667 -114.0333 94° East 150 173 4,600  Level Edmonton Center
13:17 51.0333 -114.0000 148° Southeast 140 161 7,400 2,550 Climbing Edmonton Center
13:18 51.0500 -113.9167 72° East 170 196 9,700 1,900 Climbing Edmonton Center
13:19 51.0500 -113.8333 90° East 210 242 11,200 1,650 Climbing Edmonton Center
13:20 51.0500 -113.7333 90° East 220 253 13,000 1,900 Climbing Edmonton Center
13:21 51.0833 -113.1076 90° East  Level FlightAware Approximate
13:21 51.0500 -113.6167 90° East 230 265 15,000  Level Edmonton Center
13:22 51.0787 -112.9562 94° East  Level FlightAware Approximate
13:22 51.0333 -113.5333 108° East 230 265 16,700  Level Edmonton Center
13:23 51.0500 -113.4333 75° East 230 265 18,200 1,300 Climbing Edmonton Center
13:24 51.0333 -113.3167 103° East 240 276 19,300 1,200 Climbing Edmonton Center
13:25 51.0333 -113.2167 90° East 250 288 20,600 1,200 Climbing Edmonton Center
13:26 51.0167 -113.1000 103° East 260 299 21,700 1,150 Climbing Edmonton Center
13:27 51.0333 -112.9667 79° East 250 288 22,900 650 Climbing Edmonton Center
13:28 51.0167 -112.8667 105° East 270 311 23,000 50 Climbing Edmonton Center
13:29 51.0167 -112.7333 90° East 290 334 23,000  Level Edmonton Center
13:30 51.0167 -112.5833 90° East 310 357 23,000  Level Edmonton Center
13:31 51.0167 -112.4500 90° East 310 357 23,000  Level Edmonton Center
13:32 51.0167 -112.3000 90° East 320 368 23,000  Level Edmonton Center
13:33 51.0000 -112.1500 100° East 320 368 23,000  Level Edmonton Center
13:34 51.0000 -112.0167 90° East 320 368 23,000  Level Edmonton Center
13:35 50.9833 -111.8833 101° East 320 368 23,000  Level Edmonton Center
13:36 50.9833 -111.7167 92° East 320 368 23,000  Level Edmonton Center
13:37 50.9756 -111.6087 92° East  Level FlightAware Approximate
13:37 50.9667 -111.5833 101° East 320 368 23,000  Level Edmonton Center
13:38 50.9833 -111.4500 79° East 320 368 23,000  Level Edmonton Center
13:39 50.9667 -111.3167 101° East 320 368 23,000  Level Edmonton Center
13:40 50.9667 -111.1833 90° East 320 368 23,000  Level Edmonton Center
13:41 50.9500 -111.0167 99° East 320 368 23,000  Level Edmonton Center
13:42 50.9500 -110.8833 90° East 320 368 23,000  Level Edmonton Center
13:43 50.9333 -110.7500 101° East 320 368 23,000  Level Edmonton Center
13:44 50.9333 -110.5833 90° East 330 380 23,000  Level Edmonton Center
13:45 50.9167 -110.4500 101° East 320 368 23,000  Level Edmonton Center
13:46 50.9000 -110.3167 101° East 320 368 23,000  Level Edmonton Center
13:47 50.9167 -110.1500 81° East 320 368 23,000  Level Edmonton Center
13:48 50.9000 -110.0167 101° East 320 368 23,000  Level Edmonton Center
13:49 50.9000 -109.8833 90° East 320 368 23,000  Level Edmonton Center
13:50 50.8833 -109.7500 101° East 320 368 23,000  Level Edmonton Center
13:51 50.8667 -109.5833 99° East 330 380 23,000  Level Edmonton Center
13:52 50.8667 -109.4500 90° East 330 380 23,000  Level Edmonton Center
13:53 50.8667 -109.3000 90° East 330 380 23,000  Level Edmonton Center
13:54 50.8500 -109.1667 101° East 330 380 23,000  Level Edmonton Center
13:55 50.8500 -109.0000 90° East 330 380 23,000  Level Edmonton Center
13:56 50.8333 -108.8667 101° East 330 380 23,000  Level Edmonton Center
13:57 50.8167 -108.7000 99° East 330 380 23,000  Level Edmonton Center
13:58 50.8000 -108.5667 101° East 330 380 23,000  Level Edmonton Center
13:59 50.8167 -108.4333 79° East 330 380 23,000  Level Edmonton Center
14:00 50.8000 -108.2667 99° East 330 380 23,000  Level Edmonton Center
14:01 50.7833 -108.1167 100° East 330 380 23,000  Level Edmonton Center
14:02 50.7833 -108.0333 90° East 340 391 23,000  Level Winnipeg Center
14:03 50.7667 -107.8167 97° East 340 391 23,000  Level Edmonton Center
14:04 50.7500 -107.6833 101° East 330 380 23,000  Level Edmonton Center
14:05 50.7333 -107.5167 99° East 340 391 23,000  Level Edmonton Center
14:06 50.7333 -107.3833 90° East 340 391 23,000  Level Edmonton Center
14:07 50.7333 -107.2333 90° East 340 391 23,000  Level Edmonton Center
14:08 50.7167 -107.1000 101° East 340 391 23,000  Level Edmonton Center
14:10 50.6833 -106.7667 99° East 340 391 23,000  Level Edmonton Center
14:11 50.6667 -106.6167 100° East 340 391 23,000 -200 Level Edmonton Center
14:12 50.6500 -106.4833 101° East 350 403 22,600 -950 Descending Edmonton Center
14:13 50.6500 -106.3167 90° East 350 403 21,100 -1,600 Descending Edmonton Center
14:14 50.6333 -106.1667 100° East 360 414 19,400 -1,550 Descending Edmonton Center
14:15 50.6333 -106.0333 90° East 350 403 18,000 -1,650 Descending Edmonton Center
14:16 50.6167 -105.8667 99° East 350 403 16,100 -1,700 Descending Edmonton Center
14:17 50.6000 -105.7167 100° East 340 391 14,600 -1,550 Descending Edmonton Center
14:18 50.6000 -105.5833 90° East 320 368 13,000 -1,200 Descending Edmonton Center
14:19 50.5833 -105.4500 101° East 310 357 12,200 -1,364 Descending Edmonton Center
14:20 50.5833 -105.3500 90° East 290 334 10,500 -1,582 Descending Winnipeg Center
14:21 50.5667 -105.2500 105° East 260 299 9,300 -1,150 Descending Winnipeg Center
14:22 50.5833 -105.1500 75° East 250 288 8,200 -1,140 Descending Winnipeg Center
14:23 50.5667 -105.0333 103° East 240 276 7,000 -1,050 Descending Winnipeg Center
14:24 50.5500 -104.9500 107° East 220 253 6,100 -958 Descending Winnipeg Center
14:25 50.5500 -104.8833 90° East 200 230 5,100 -950 Descending Winnipeg Center
14:26 50.5167 -104.8167 128° Southeast 170 196 4,200 -750 Descending Winnipeg Center
14:27 50.4833 -104.7833 148° Southeast 150 173 3,600 -645 Descending Winnipeg Center
14:28 50.4500 -104.7333 136° Southeast 130 150 2,900 -694 Descending Winnipeg Center
14:29 50.4333 -104.7000 128° Southeast 110 127 2,200 -700 Descending Winnipeg Center

Login

Don't have an account? Register now (free) for customized features, flight alerts, and more!